Terminal Aerodrome Forecast
Issued by NWS Upton, NY

Home | Current Version | Previous Version | Text Only | Print | Product List | Glossary On
Versions: 1 2 3 4 5 6 7 8 9 10 11 12 13 14 15 16 17 18 19 20 21 22 23 24 25
000
FTUS41 KOKX 270231 AAA
TAFISP
TAF AMD
KISP 270231Z 2703/2724 21014G22KT P6SM FEW150 BKN250
     FM270400 21012KT P6SM BKN250
     FM270900 21008KT P6SM SCT012
      TEMPO 2710/2712 3SM BR BKN012
     FM271400 18012KT P6SM BKN035
     FM271700 18016G21KT P6SM SCT040 BKN200=

USA.gov is the U.S. government's official web portal to all federal, state and local government web resources and services.